Time;durP1;ratioP1;P1;durP2;ratioP2;P2;SDS_P1;SDS_P2;PMS_P1;PMS_P2;Temp;Humidity;BMP_temperature;BMP_pressure;BME280_temperature;BME280_humidity;BME280_pressure;Samples;Min_cycle;Max_cycle;Signal;HPM_P1;HPM_P2
2022/03/17 06:22:01;;;;;;;36.40;19.73;;;;;;;5.78;100.00;99743.59;5046986;28;20422;-89
2022/03/17 06:24:33;;;;;;;34.53;20.20;;;;;;;6.02;100.00;99767.50;5050023;28;20049;-89
2022/03/17 06:27:03;;;;;;;38.55;21.92;;;;;;;6.08;100.00;99752.59;5049947;28;20480;-89
2022/03/17 06:29:32;;;;;;;33.38;20.25;;;;;;;6.20;100.00;99760.44;5045413;28;20045;-88
2022/03/17 06:32:03;;;;;;;34.75;20.63;;;;;;;6.19;100.00;99749.78;5048287;28;20049;-89
2022/03/17 06:34:34;;;;;;;32.80;19.77;;;;;;;6.44;100.00;99766.38;5049265;28;20053;-89
2022/03/17 06:37:08;;;;;;;28.38;17.52;;;;;;;6.54;100.00;99756.44;5060386;28;20057;-89
2022/03/17 06:39:37;;;;;;;35.65;19.10;;;;;;;6.46;100.00;99746.34;5036496;28;20049;-88
2022/03/17 06:42:06;;;;;;;33.63;19.33;;;;;;;6.54;99.75;99764.53;5027258;28;20128;-89
2022/03/17 06:44:41;;;;;;;32.03;18.57;;;;;;;6.58;100.00;99765.09;5028984;28;20055;-89
2022/03/17 06:47:17;;;;;;;32.70;19.45;;;;;;;6.53;98.96;99754.72;5028634;28;20136;-88
2022/03/17 06:49:53;;;;;;;31.88;19.00;;;;;;;6.62;98.94;99761.09;5029231;28;20053;-89
2022/03/17 06:52:22;;;;;;;32.30;18.35;;;;;;;6.63;97.39;99760.13;5042052;28;20050;-88
2022/03/17 06:55:02;;;;;;;38.17;19.13;;;;;;;6.88;97.55;99772.13;5025027;28;20527;-89
2022/03/17 06:57:43;;;;;;;;;;;;;;;6.92;96.24;99776.25;5022984;28;20405;-88
2022/03/17 07:00:18;;;;;;;33.88;20.45;;;;;;;6.82;96.34;99779.00;5027910;28;20395;-89
2022/03/17 07:02:51;;;;;;;37.85;19.17;;;;;;;6.88;95.49;99781.09;5017663;28;20060;-89
2022/03/17 07:05:27;;;;;;;33.13;19.67;;;;;;;6.89;95.76;99780.13;5011630;28;20050;-88
2022/03/17 07:07:56;;;;;;;31.42;18.13;;;;;;;6.97;98.15;99792.03;5022806;28;20045;-88
2022/03/17 07:10:30;;;;;;;31.75;18.35;;;;;;;7.00;100.00;99789.03;5049976;28;20139;-89
2022/03/17 07:13:08;;;;;;;33.67;20.48;;;;;;;7.19;98.47;99813.31;5037900;28;20060;-90
2022/03/17 07:15:39;;;;;;;34.53;19.52;;;;;;;7.19;97.20;99815.16;5029449;28;20049;-89
2022/03/17 07:18:10;;;;;;;32.80;19.42;;;;;;;7.25;95.80;99815.41;5021071;28;20060;-89
2022/03/17 07:20:43;;;;;;;32.00;18.90;;;;;;;7.20;96.15;99817.72;5036145;28;20049;-89
2022/03/17 07:23:25;;;;;;;33.75;19.83;;;;;;;7.07;98.21;99801.81;5046664;28;20084;-90
2022/03/17 07:25:55;;;;;;;30.98;19.30;;;;;;;7.11;99.47;99807.81;5047399;28;20056;-88
2022/03/17 07:28:23;;;;;;;34.55;20.10;;;;;;;7.12;100.00;99814.03;5047859;28;20334;-87
2022/03/17 07:30:52;;;;;;;38.53;21.30;;;;;;;7.18;98.93;99824.28;5028396;28;20038;-88
2022/03/17 07:33:21;;;;;;;32.13;21.52;;;;;;;7.25;100.00;99838.91;5014113;28;20076;-87
2022/03/17 07:36:18;;;;;;;32.75;19.33;;;;;;;7.34;100.00;99848.00;5020207;28;20097;-89
2022/03/17 07:38:47;;;;;;;32.33;18.73;;;;;;;7.35;100.00;99849.72;5013013;28;20061;-88
2022/03/17 07:41:15;;;;;;;39.33;20.63;;;;;;;7.30;100.00;99844.75;5019415;28;20516;-87
2022/03/17 07:43:43;;;;;;;40.60;19.27;;;;;;;7.50;99.34;99855.47;5006652;28;20140;-87
2022/03/17 07:46:11;;;;;;;38.15;20.33;;;;;;;7.54;99.65;99868.59;5012708;28;20120;-88
2022/03/17 07:48:41;;;;;;;36.85;20.85;;;;;;;7.42;99.57;99858.94;5007796;28;20140;-88
2022/03/17 07:51:08;;;;;;;;;;;;;;;7.68;95.74;99860.97;5016271;28;20107;-88
2022/03/17 07:53:39;;;;;;;38.75;20.17;;;;;;;7.47;95.93;99847.66;5013388;28;19925;-87
2022/03/17 07:56:14;;;;;;;46.42;21.05;;;;;;;7.33;97.52;99844.47;5014309;28;20042;-88
2022/03/17 07:58:44;;;;;;;31.95;19.08;;;;;;;7.37;97.11;99845.00;5014098;28;20054;-88
2022/03/17 08:01:11;;;;;;;;;;;;;;;7.73;96.20;99875.75;5014535;28;20096;-88
2022/03/17 08:03:40;;;;;;;47.90;21.45;;;;;;;7.72;96.34;99863.25;5000714;28;20373;-88
2022/03/17 08:06:09;;;;;;;31.87;18.37;;;;;;;7.76;96.72;99870.03;5011332;28;20038;-86
2022/03/17 08:08:39;;;;;;;43.60;20.45;;;;;;;7.75;94.73;99872.91;5011523;28;20137;-89
2022/03/17 08:11:09;;;;;;;47.72;18.95;;;;;;;7.69;95.60;99868.94;5014370;28;20383;-87
2022/03/17 08:13:36;;;;;;;35.10;19.85;;;;;;;7.78;95.41;99876.19;5010967;28;20049;-87
2022/03/17 08:16:02;;;;;;;34.83;19.42;;;;;;;7.72;94.96;99868.66;5013961;28;20058;-87
2022/03/17 08:18:32;;;;;;;33.70;20.58;;;;;;;7.88;96.11;99878.84;5019556;28;20391;-90
2022/03/17 08:20:59;;;;;;;38.58;19.35;;;;;;;8.07;92.35;99883.31;5013616;28;20500;-88
2022/03/17 08:23:26;;;;;;;34.28;19.92;;;;;;;7.96;95.64;99888.91;5013120;28;20489;-88
2022/03/17 08:25:55;;;;;;;35.78;20.65;;;;;;;7.98;97.73;99886.91;5013496;28;20049;-88
2022/03/17 08:28:24;;;;;;;36.25;19.23;;;;;;;7.96;96.72;99872.66;5013040;28;20053;-88
2022/03/17 08:30:51;;;;;;;36.63;20.20;;;;;;;8.14;94.10;99880.81;5012034;28;20599;-87
2022/03/17 08:33:23;;;;;;;33.13;20.08;;;;;;;8.21;94.30;99881.94;5009467;28;20397;-88
2022/03/17 08:35:54;;;;;;;42.35;20.95;;;;;;;8.14;95.74;99868.16;5017885;28;20421;-88
2022/03/17 08:38:23;;;;;;;41.83;21.38;;;;;;;8.35;90.99;99891.38;5011437;28;20501;-88
2022/03/17 08:40:55;;;;;;;37.17;20.67;;;;;;;8.37;94.45;99888.53;5012495;28;20137;-87
2022/03/17 08:43:30;;;;;;;36.30;21.40;;;;;;;8.43;90.51;99883.38;5014796;28;20057;-87
2022/03/17 08:51:30;;;;;;;33.03;21.13;;;;;;;8.42;94.21;99903.31;5017519;28;20121;-87
2022/03/17 08:54:00;;;;;;;38.90;22.98;;;;;;;8.53;93.10;99898.72;5009535;28;20066;-87
2022/03/17 08:56:32;;;;;;;36.40;20.10;;;;;;;8.61;90.22;99893.38;5013356;28;20428;-87
2022/03/17 08:59:01;;;;;;;37.45;21.45;;;;;;;8.50;90.83;99892.59;5027247;28;20045;-87
2022/03/17 09:01:56;;;;;;;;;;;;;;;;;;;;;
2022/03/17 09:04:33;;;;;;;36.53;19.98;;;;;;;8.63;89.71;99903.06;5009114;28;20386;-88
2022/03/17 09:07:04;;;;;;;36.00;20.52;;;;;;;8.79;89.84;99913.22;5007449;28;20541;-86
2022/03/17 09:09:38;;;;;;;34.80;19.95;;;;;;;8.70;89.25;99900.56;5027682;28;20085;-88
2022/03/17 09:12:07;;;;;;;38.03;20.88;;;;;;;8.67;88.74;99920.72;5023279;28;20048;-88
2022/03/17 09:14:40;;;;;;;36.20;19.05;;;;;;;8.71;88.60;99915.84;5034721;28;20041;-87
2022/03/17 09:17:09;;;;;;;40.05;21.65;;;;;;;8.80;89.33;99919.50;5030234;28;20264;-87
2022/03/17 09:19:38;;;;;;;39.40;21.25;;;;;;;9.03;89.99;99922.56;5023286;28;20094;-86
2022/03/17 09:22:07;;;;;;;35.15;20.75;;;;;;;8.97;87.83;99915.94;5009657;28;20508;-87
2022/03/17 09:24:37;;;;;;;39.60;21.93;;;;;;;9.09;86.42;99915.66;5018406;28;20148;-88
2022/03/17 09:27:16;;;;;;;34.25;21.23;;;;;;;9.08;86.73;99916.66;5015128;28;20324;-88
2022/03/17 09:29:59;;;;;;;35.55;21.45;;;;;;;9.06;86.00;99916.81;5008086;28;20057;-88
2022/03/17 09:32:37;;;;;;;41.38;20.65;;;;;;;8.98;88.31;99911.34;5023761;28;20057;-86
2022/03/17 09:35:05;;;;;;;34.58;20.48;;;;;;;9.16;89.11;99906.75;5008077;28;20101;-88
2022/03/17 09:37:31;;;;;;;37.53;22.17;;;;;;;9.30;86.77;99913.44;4997950;28;20585;-87
2022/03/17 09:39:58;;;;;;;42.05;21.65;;;;;;;9.39;86.16;99928.81;5008185;28;20066;-87
2022/03/17 09:42:25;;;;;;;41.53;23.15;;;;;;;9.37;85.91;99902.84;5014866;28;20096;-87
2022/03/17 09:44:56;;;;;;;37.85;21.65;;;;;;;9.59;84.11;99922.31;5011111;28;20506;-87
2022/03/17 09:47:38;;;;;;;40.17;21.67;;;;;;;9.50;84.35;99913.25;5016360;28;20089;-92
2022/03/17 09:53:20;;;;;;;36.28;20.23;;;;;;;9.72;83.39;99901.84;4992000;28;20061;-86
2022/03/17 09:56:43;;;;;;;33.85;21.02;;;;;;;9.76;83.21;99915.97;5010682;28;20401;-87
2022/03/17 10:18:56;;;;;;;36.22;21.65;;;;;;;10.13;83.26;99933.78;4867794;29;20074;-86
2022/03/17 10:27:54;;;;;;;31.23;19.85;;;;;;;10.33;81.07;99948.00;5012990;28;20085;-87
2022/03/17 10:30:40;;;;;;;;;;;;;;;10.30;79.82;99958.31;5008936;28;20152;-87
2022/03/17 10:33:22;;;;;;;37.95;22.35;;;;;;;10.33;79.50;99947.09;5011847;28;20254;-87
2022/03/17 10:36:21;;;;;;;41.22;20.98;;;;;;;10.21;79.74;99933.84;5010846;28;20050;-87
2022/03/17 10:38:59;;;;;;;43.75;20.67;;;;;;;10.16;79.23;99962.50;5009055;28;20046;-87
2022/03/17 10:41:43;;;;;;;39.72;22.13;;;;;;;10.31;83.90;99960.03;5008276;28;20100;-87
2022/03/17 10:44:18;;;;;;;38.33;20.65;;;;;;;10.61;79.33;99964.94;5009654;28;20101;-87
2022/03/17 10:47:11;;;;;;;37.78;22.17;;;;;;;10.59;78.75;99985.13;5009621;28;20053;-87
2022/03/17 10:50:00;;;;;;;35.42;21.48;;;;;;;10.58;78.69;99964.41;5014177;28;20129;-87
2022/03/17 10:52:45;;;;;;;39.75;22.85;;;;;;;10.74;79.63;99969.88;5010274;28;20046;-87
2022/03/17 10:55:14;;;;;;;41.03;22.25;;;;;;;10.67;78.55;99968.00;5008702;28;20426;-87
2022/03/17 10:57:44;;;;;;;33.03;20.77;;;;;;;10.81;78.08;99986.41;5009781;28;20715;-87
2022/03/17 11:00:21;;;;;;;39.50;22.63;;;;;;;10.76;78.50;99994.19;5007761;28;20144;-87
2022/03/17 11:02:57;;;;;;;37.63;22.20;;;;;;;10.90;79.21;99982.69;5008156;28;20559;-87
2022/03/17 11:05:25;;;;;;;41.28;23.23;;;;;;;11.00;76.17;99970.78;5011831;28;20069;-87
2022/03/17 11:07:54;;;;;;;34.85;20.75;;;;;;;11.06;76.79;99994.59;5010293;28;20053;-87
2022/03/17 11:10:25;;;;;;;34.00;21.25;;;;;;;10.92;78.17;99983.34;5017828;28;20096;-87
2022/03/17 11:12:52;;;;;;;34.45;21.27;;;;;;;10.96;78.71;99983.88;5013701;28;20050;-87
2022/03/17 11:15:31;;;;;;;35.40;21.95;;;;;;;10.74;78.96;99980.75;5013619;28;20096;-87
2022/03/17 11:18:05;;;;;;;41.53;22.95;;;;;;;10.98;77.71;99996.28;5014063;28;20049;-87
2022/03/17 11:20:34;;;;;;;34.53;21.20;;;;;;;10.87;77.87;99987.59;5013737;28;20042;-87
2022/03/17 11:23:16;;;;;;;38.22;21.30;;;;;;;10.86;77.49;99991.34;5012375;28;20133;-87
2022/03/17 11:25:52;;;;;;;48.40;22.42;;;;;;;10.94;78.14;99991.34;5015792;28;20050;-87
2022/03/17 11:28:30;;;;;;;36.53;21.58;;;;;;;10.98;78.54;100017.22;5014538;28;20053;-87
2022/03/17 11:31:03;;;;;;;39.58;21.88;;;;;;;10.86;80.85;100010.38;5012631;28;20068;-87
2022/03/17 11:33:32;;;;;;;37.67;22.08;;;;;;;10.73;80.10;99998.09;5011900;28;20037;-87
2022/03/17 11:36:12;;;;;;;35.30;21.02;;;;;;;10.55;80.99;99998.22;5013639;28;20069;-87
2022/03/17 11:38:41;;;;;;;36.95;22.88;;;;;;;10.74;81.45;99997.06;5012582;28;20083;-86
2022/03/17 11:41:12;;;;;;;40.60;22.52;;;;;;;10.73;80.88;100002.69;5012298;28;20041;-86
2022/03/17 11:43:43;;;;;;;39.42;23.05;;;;;;;10.63;81.54;100009.13;5012765;28;20046;-86
2022/03/17 11:46:13;;;;;;;40.13;22.77;;;;;;;10.74;81.40;100004.41;5012488;28;20061;-87
2022/03/17 11:48:46;;;;;;;49.38;22.88;;;;;;;10.67;80.63;100009.63;5014702;28;20068;-86
2022/03/17 11:51:18;;;;;;;40.08;23.20;;;;;;;10.70;81.51;100012.00;5008993;28;20141;-87
2022/03/17 11:53:48;;;;;;;42.13;22.65;;;;;;;10.60;82.61;99995.00;5012217;28;20061;-87
2022/03/17 11:56:32;;;;;;;38.42;23.83;;;;;;;10.85;81.15;100020.38;5017639;28;20079;-87
2022/03/17 11:59:00;;;;;;;40.35;21.85;;;;;;;10.82;82.35;100004.41;5013157;28;20437;-86
2022/03/17 12:01:29;;;;;;;39.58;23.10;;;;;;;10.88;83.46;100020.06;5013050;28;20076;-86
2022/03/17 12:03:57;;;;;;;36.33;21.27;;;;;;;10.81;84.36;100016.31;5018957;28;20113;-86
2022/03/17 12:06:28;;;;;;;34.45;21.23;;;;;;;10.80;86.85;100017.34;5013060;28;20050;-86
2022/03/17 12:08:59;;;;;;;36.95;22.33;;;;;;;10.73;88.32;100002.69;5015696;28;20140;-86
2022/03/17 12:11:31;;;;;;;38.80;22.35;;;;;;;10.86;87.74;100019.38;5011403;28;20045;-86
2022/03/17 12:14:24;;;;;;;43.75;23.08;;;;;;;10.61;89.49;100021.16;5010537;28;20137;-86
2022/03/17 12:19:37;;;;;;;43.80;23.45;;;;;;;10.79;89.76;100021.06;5016415;28;20050;-86
2022/03/17 12:22:18;;;;;;;39.85;22.50;;;;;;;10.71;90.53;100024.59;5011227;28;20456;-86
2022/03/17 12:24:50;;;;;;;39.58;22.38;;;;;;;10.63;91.08;100025.44;5012890;28;20050;-86
2022/03/17 12:27:26;;;;;;;41.10;23.25;;;;;;;10.67;91.17;100036.81;5012543;28;20046;-86
2022/03/17 12:30:00;;;;;;;39.97;22.67;;;;;;;10.80;88.89;100031.78;5012923;28;20050;-86
2022/03/17 12:32:31;;;;;;;37.55;21.50;;;;;;;10.66;86.17;100021.53;5009841;28;20046;-86
2022/03/17 12:34:59;;;;;;;41.63;23.20;;;;;;;10.70;83.33;100041.94;5012911;28;20401;-86
2022/03/17 12:37:30;;;;;;;40.05;22.95;;;;;;;10.68;83.55;100026.81;5009131;28;20104;-86
2022/03/17 12:40:00;;;;;;;36.80;20.55;;;;;;;10.52;83.45;100020.28;5011630;28;20046;-86
2022/03/17 12:42:30;;;;;;;;;;;;;;;10.72;81.58;100039.91;5012109;28;20235;-86
2022/03/17 12:45:00;;;;;;;41.33;23.67;;;;;;;10.88;80.74;100024.66;5017705;28;19928;-86
2022/03/17 12:47:41;;;;;;;35.80;20.83;;;;;;;10.89;81.49;100043.53;5015901;28;20056;-86
2022/03/17 12:50:12;;;;;;;46.72;21.95;;;;;;;10.97;80.68;100039.97;5004579;28;20544;-86
2022/03/17 12:52:40;;;;;;;36.40;21.42;;;;;;;10.71;82.87;100049.09;5010452;28;20058;-86
2022/03/17 12:55:09;;;;;;;37.53;21.15;;;;;;;10.65;83.27;100038.88;5015793;28;20041;-85
2022/03/17 12:57:41;;;;;;;38.28;23.65;;;;;;;10.58;84.02;100032.38;5012659;28;20108;-87
2022/03/17 13:01:00;;;;;;;34.63;21.02;;;;;;;10.58;84.20;100037.81;5014829;28;20057;-93
2022/03/17 13:08:48;;;;;;;34.67;21.63;;;;;;;10.87;86.17;100067.34;5013551;28;20104;-86
2022/03/17 13:14:25;;;;;;;35.95;19.00;;;;;;;10.61;84.41;100062.81;4991866;28;20284;-86
2022/03/17 13:17:02;;;;;;;39.47;22.00;;;;;;;10.54;83.84;100041.88;5010237;28;20436;-86
2022/03/17 13:19:29;;;;;;;35.38;20.95;;;;;;;10.64;85.02;100048.03;5010245;28;20061;-86
2022/03/17 13:22:05;;;;;;;37.67;22.02;;;;;;;10.67;83.52;100049.56;5013273;28;20046;-84
2022/03/17 13:24:32;;;;;;;33.83;21.05;;;;;;;10.72;82.24;100075.28;5011450;28;20050;-85
2022/03/17 13:27:02;;;;;;;40.83;22.63;;;;;;;10.65;81.18;100063.34;5010886;28;20512;-86
2022/03/17 13:29:31;;;;;;;35.25;22.23;;;;;;;10.61;82.69;100075.53;5010919;28;20552;-86
2022/03/17 13:31:58;;;;;;;36.00;21.23;;;;;;;10.57;83.18;100072.31;5011014;28;20054;-86
2022/03/17 13:34:29;;;;;;;40.88;23.17;;;;;;;10.77;79.93;100081.06;4999869;28;20046;-86
2022/03/17 13:36:58;;;;;;;37.15;22.35;;;;;;;10.58;80.29;100065.00;5006039;28;20058;-86
2022/03/17 13:39:35;;;;;;;33.88;21.48;;;;;;;10.58;82.00;100084.91;5006904;28;20513;-86
2022/03/17 13:42:05;;;;;;;34.97;21.40;;;;;;;10.60;81.27;100082.88;5010753;28;20046;-86
2022/03/17 13:44:48;;;;;;;37.67;20.73;;;;;;;10.49;80.91;100074.13;5010105;28;20057;-86
2022/03/17 13:47:23;;;;;;;36.17;22.67;;;;;;;10.52;81.19;100082.81;5010789;28;20597;-86
2022/03/17 13:50:18;;;;;;;39.53;23.55;;;;;;;10.57;82.22;100091.34;5010382;28;20050;-86
2022/03/17 13:52:55;;;;;;;36.70;22.48;;;;;;;10.47;80.08;100068.03;5002118;28;20065;-85
2022/03/17 13:55:22;;;;;;;37.67;23.23;;;;;;;10.44;79.73;100074.63;5023072;28;20049;-85
2022/03/17 13:57:52;;;;;;;37.60;22.27;;;;;;;10.48;79.71;100086.88;5023749;28;20053;-85
2022/03/17 14:00:22;;;;;;;34.80;21.30;;;;;;;10.57;78.70;100066.03;5019918;28;20123;-86
2022/03/17 14:03:37;;;;;;;44.90;22.45;;;;;;;10.65;80.15;100084.25;5020228;28;20046;-86
2022/03/17 14:06:15;;;;;;;32.95;20.98;;;;;;;10.49;80.79;100085.84;5003154;28;20050;-86
2022/03/17 14:08:50;;;;;;;37.72;23.25;;;;;;;10.59;81.04;100077.59;5009955;28;20408;-86
2022/03/17 14:11:19;;;;;;;34.10;22.00;;;;;;;10.45;81.18;100082.63;5011221;28;20045;-86
2022/03/17 14:13:48;;;;;;;35.17;21.35;;;;;;;10.26;80.86;100082.81;5010809;28;20061;-86
2022/03/17 14:16:19;;;;;;;37.58;22.17;;;;;;;10.32;81.89;100087.59;5011242;28;20431;-86
2022/03/17 14:18:48;;;;;;;35.25;21.15;;;;;;;10.49;81.81;100101.31;5008540;28;20050;-85
2022/03/17 14:21:15;;;;;;;37.70;21.73;;;;;;;10.32;85.22;100097.63;5009450;28;20050;-86
2022/03/17 14:26:29;;;;;;;38.85;22.23;;;;;;;10.34;86.59;100101.06;5011682;28;20048;-86
2022/03/17 14:28:58;;;;;;;37.30;21.17;;;;;;;10.37;86.12;100126.06;5010900;28;20056;-86
2022/03/17 14:31:32;;;;;;;39.78;24.17;;;;;;;10.27;86.11;100106.25;5010577;28;20437;-86
2022/03/17 14:33:59;;;;;;;33.90;21.73;;;;;;;10.50;83.88;100113.91;5010978;28;20077;-86
2022/03/17 14:36:28;;;;;;;36.10;21.77;;;;;;;10.43;84.31;100102.81;5013295;28;20053;-86
2022/03/17 14:38:56;;;;;;;35.92;22.23;;;;;;;10.58;83.21;100122.09;5010863;28;20054;-86
2022/03/17 14:41:24;;;;;;;37.20;23.02;;;;;;;10.37;82.64;100114.34;5010980;28;20054;-85
2022/03/17 14:43:54;;;;;;;49.33;22.08;;;;;;;10.34;82.25;100129.13;5016045;28;20100;-86
2022/03/17 14:46:24;;;;;;;34.42;21.88;;;;;;;10.29;82.97;100112.38;5023921;28;20046;-86
2022/03/17 14:48:53;;;;;;;42.67;22.85;;;;;;;10.39;81.73;100126.75;5022019;28;20097;-85
2022/03/17 14:51:20;;;;;;;35.77;23.40;;;;;;;10.56;80.81;100124.13;5036779;28;20040;-86
2022/03/17 14:53:50;;;;;;;36.78;22.70;;;;;;;10.45;81.30;100111.69;5041993;28;20603;-86
2022/03/17 14:56:19;;;;;;;44.85;22.73;;;;;;;10.55;83.48;100131.44;5042728;28;20125;-85
2022/03/17 14:58:49;;;;;;;44.97;22.90;;;;;;;10.30;80.60;100118.66;5032936;28;20048;-85
2022/03/17 15:01:18;;;;;;;;;;;;;;;10.39;84.34;100131.34;5038762;28;20089;-85
2022/03/17 15:03:48;;;;;;;35.15;21.65;;;;;;;10.37;84.17;100127.91;5028981;28;20004;-86
2022/03/17 15:06:19;;;;;;;40.88;23.00;;;;;;;10.44;83.31;100127.13;5020285;28;20054;-86
2022/03/17 15:08:49;;;;;;;39.78;22.10;;;;;;;10.45;81.96;100128.00;5014513;28;20141;-85
2022/03/17 15:11:19;;;;;;;36.70;22.92;;;;;;;10.41;83.54;100138.31;5010617;28;20050;-86
2022/03/17 15:13:46;;;;;;;;;;;;;;;10.46;83.82;100140.53;5013403;28;20050;-86
2022/03/17 15:16:13;;;;;;;37.85;22.70;;;;;;;10.34;82.10;100123.69;5015193;28;19921;-85
2022/03/17 15:18:39;;;;;;;41.60;23.48;;;;;;;10.37;82.07;100128.78;5014128;28;20409;-84
2022/03/17 15:21:06;;;;;;;37.95;22.80;;;;;;;10.29;82.94;100123.25;5005721;28;20060;-84
2022/03/17 15:23:34;;;;;;;39.30;22.05;;;;;;;10.42;82.42;100148.19;4996351;28;20050;-84
2022/03/17 15:26:01;;;;;;;44.50;24.42;;;;;;;10.38;82.80;100145.94;4996783;28;20049;-84
2022/03/17 15:31:14;;;;;;;37.10;22.20;;;;;;;10.36;84.28;100158.84;4986937;28;20197;-85
2022/03/17 15:33:40;;;;;;;39.95;22.77;;;;;;;10.14;87.24;100149.31;4991249;28;20077;-84
2022/03/17 15:36:07;;;;;;;40.63;23.58;;;;;;;10.11;88.03;100145.03;4993313;28;20060;-84
2022/03/17 15:38:35;;;;;;;43.03;24.35;;;;;;;10.13;91.32;100174.75;4984987;28;20053;-83
2022/03/17 15:41:02;;;;;;;40.20;25.42;;;;;;;10.19;94.46;100165.97;4989261;28;20045;-83
2022/03/17 15:43:28;;;;;;;41.67;24.77;;;;;;;10.13;95.79;100167.44;4985793;28;20043;-83
2022/03/17 15:45:55;;;;;;;43.50;25.08;;;;;;;10.08;96.06;100162.50;4987435;28;20540;-82
2022/03/17 15:48:21;;;;;;;43.58;25.80;;;;;;;10.10;100.00;100173.19;4992754;28;20149;-84
2022/03/17 15:50:48;;;;;;;44.92;26.38;;;;;;;10.02;99.48;100174.00;4990855;28;20153;-83
2022/03/17 15:53:16;;;;;;;48.97;26.73;;;;;;;10.00;98.57;100173.31;4992897;28;20149;-83
2022/03/17 15:55:45;;;;;;;43.10;25.92;;;;;;;9.98;98.92;100180.78;4984477;28;20790;-83
2022/03/17 15:58:12;;;;;;;45.15;25.98;;;;;;;9.84;99.53;100170.44;4982415;28;20074;-83
2022/03/17 16:00:39;;;;;;;42.70;24.73;;;;;;;9.94;99.34;100192.94;4983561;28;20046;-83
2022/03/17 16:03:08;;;;;;;44.38;25.70;;;;;;;9.88;100.00;100178.13;4984007;28;20046;-83
2022/03/17 16:05:38;;;;;;;42.30;25.08;;;;;;;9.99;98.42;100181.63;4984808;28;20054;-83
2022/03/17 16:08:05;;;;;;;45.85;26.65;;;;;;;9.91;100.00;100177.81;4989070;28;20056;-83
2022/03/17 16:16:02;;;;;;;44.25;27.00;;;;;;;10.00;99.11;100188.75;4986820;28;20112;-84
2022/03/17 16:18:30;;;;;;;45.22;26.88;;;;;;;9.97;100.00;100210.81;4991783;28;20468;-84
2022/03/17 16:20:59;;;;;;;40.17;25.48;;;;;;;10.03;96.09;100194.72;4983699;28;20073;-84
2022/03/17 16:23:26;;;;;;;45.03;24.98;;;;;;;9.90;96.59;100203.25;4989184;28;20449;-83
2022/03/17 16:25:54;;;;;;;47.28;25.05;;;;;;;9.80;98.39;100201.63;4986192;28;20068;-83
2022/03/17 16:28:22;;;;;;;42.33;24.80;;;;;;;9.88;95.98;100220.72;4984159;28;20058;-83
2022/03/17 16:30:49;;;;;;;50.03;24.27;;;;;;;9.65;96.26;100210.31;4984687;28;20116;-84
2022/03/17 16:33:16;;;;;;;43.20;25.35;;;;;;;9.60;97.48;100209.06;4987919;28;20050;-83
2022/03/17 16:35:46;;;;;;;42.95;23.55;;;;;;;9.64;97.31;100221.34;4986987;28;20478;-83
2022/03/17 16:38:14;;;;;;;51.22;25.38;;;;;;;9.53;100.00;100216.97;4996716;28;20064;-84
2022/03/17 16:40:41;;;;;;;44.08;23.13;;;;;;;9.48;99.13;100216.56;4986790;28;20722;-84
2022/03/17 16:43:08;;;;;;;41.00;22.08;;;;;;;9.42;99.13;100219.88;4986811;28;20046;-84
2022/03/17 16:45:37;;;;;;;41.97;22.00;;;;;;;9.35;98.68;100222.38;4990838;28;20047;-84
2022/03/17 16:48:06;;;;;;;35.30;20.10;;;;;;;9.35;100.00;100244.09;4986230;28;20061;-85
2022/03/17 16:50:34;;;;;;;35.25;19.65;;;;;;;9.22;100.00;100228.13;4991535;28;20405;-84
2022/03/17 16:53:01;;;;;;;42.83;21.35;;;;;;;9.30;100.00;100240.94;4987237;28;20478;-84
2022/03/17 16:55:29;;;;;;;45.75;24.52;;;;;;;9.22;100.00;100241.69;4983241;28;20042;-85
2022/03/17 16:57:56;;;;;;;44.80;22.52;;;;;;;9.14;100.00;100236.19;4984303;28;20450;-84
2022/03/17 17:00:23;;;;;;;42.92;23.70;;;;;;;9.00;99.28;100238.38;4982374;28;20051;-85
2022/03/17 17:02:51;;;;;;;38.63;21.10;;;;;;;8.97;99.59;100263.09;4989739;28;20058;-85
2022/03/17 17:05:18;;;;;;;42.80;25.95;;;;;;;8.97;99.77;100270.34;4990347;28;20061;-85
2022/03/17 17:07:45;;;;;;;45.22;26.20;;;;;;;8.88;100.00;100274.78;4985651;28;20096;-85
2022/03/17 17:10:12;;;;;;;45.17;23.25;;;;;;;8.79;100.00;100279.25;4989006;28;20323;-85
2022/03/17 17:12:41;;;;;;;46.55;24.55;;;;;;;8.67;100.00;100264.13;4985027;28;20128;-85
2022/03/17 17:15:09;;;;;;;43.83;25.17;;;;;;;8.66;100.00;100273.28;4990407;28;20060;-86
2022/03/17 17:17:36;;;;;;;41.80;23.55;;;;;;;8.61;100.00;100289.09;4988916;28;20503;-85
2022/03/17 17:20:05;;;;;;;44.28;23.25;;;;;;;8.70;100.00;100304.50;4995170;28;20068;-85
2022/03/17 17:30:40;;;;;;;41.70;23.27;;;;;;;8.67;100.00;100304.78;4990947;28;20458;-84
2022/03/17 17:30:50;;;;;;;48.00;24.98;;;;;;;8.53;100.00;100313.38;4985297;28;20073;-85
2022/03/17 17:33:19;;;;;;;50.33;25.83;;;;;;;8.53;100.00;100308.81;4982074;28;20054;-85
2022/03/17 17:35:47;;;;;;;46.60;25.63;;;;;;;8.54;100.00;100315.94;4993938;28;20050;-85
2022/03/17 17:38:13;;;;;;;44.83;26.48;;;;;;;8.62;100.00;100321.50;4994803;28;20065;-85
2022/03/17 17:40:40;;;;;;;46.47;26.63;;;;;;;8.50;100.00;100317.22;4985087;28;20053;-84
2022/03/17 17:43:09;;;;;;;47.47;26.40;;;;;;;8.44;100.00;100320.50;4989895;28;20050;-85
2022/03/17 17:45:36;;;;;;;53.38;24.48;;;;;;;8.42;100.00;100328.75;4992228;28;20057;-85
2022/03/17 17:48:06;;;;;;;45.50;25.88;;;;;;;8.50;100.00;100338.91;4991893;28;20419;-85
2022/03/17 17:50:33;;;;;;;41.55;26.33;;;;;;;8.42;100.00;100333.31;5002468;28;20065;-85
2022/03/17 17:53:01;;;;;;;47.38;26.55;;;;;;;8.39;100.00;100337.16;5010245;28;20049;-85
2022/03/17 17:55:30;;;;;;;47.90;26.98;;;;;;;8.47;100.00;100350.88;5011701;28;20484;-85
2022/03/17 17:57:58;;;;;;;51.90;27.45;;;;;;;8.45;100.00;100354.75;5011804;28;20104;-85
2022/03/17 18:00:26;;;;;;;46.85;27.05;;;;;;;8.30;100.00;100347.00;5008867;28;20045;-85
2022/03/17 18:02:53;;;;;;;49.42;27.33;;;;;;;8.33;100.00;100356.72;5009306;28;20042;-85
2022/03/17 18:05:22;;;;;;;50.60;27.95;;;;;;;8.27;100.00;100358.13;5010401;28;20046;-85
2022/03/17 18:07:48;;;;;;;48.35;26.63;;;;;;;8.20;100.00;100358.81;5010737;28;20473;-85
2022/03/17 18:10:17;;;;;;;43.42;24.10;;;;;;;8.13;100.00;100351.25;5010525;28;20140;-85
2022/03/17 18:12:54;;;;;;;47.85;27.17;;;;;;;8.25;100.00;100370.97;5011292;28;20042;-85
2022/03/17 18:15:22;;;;;;;51.28;26.85;;;;;;;8.05;100.00;100352.94;5011432;28;20156;-86
2022/03/17 18:17:49;;;;;;;47.15;26.52;;;;;;;8.19;100.00;100370.66;5012178;28;20049;-85
2022/03/17 18:20:16;;;;;;;48.80;27.33;;;;;;;8.18;100.00;100377.09;5010815;28;20058;-86
2022/03/17 18:22:42;;;;;;;47.15;25.55;;;;;;;7.94;100.00;100348.50;5010355;28;20046;-85
2022/03/17 18:25:09;;;;;;;51.28;29.23;;;;;;;7.98;100.00;100371.63;5010691;28;20049;-85
2022/03/17 18:27:37;;;;;;;53.17;29.77;;;;;;;7.95;100.00;100388.16;5010851;28;20042;-85
2022/03/17 18:30:05;;;;;;;48.65;26.50;;;;;;;7.81;100.00;100375.81;5013725;28;20133;-85
2022/03/17 18:32:32;;;;;;;53.17;30.38;;;;;;;7.82;100.00;100387.53;5020715;28;20137;-87
2022/03/17 18:34:59;;;;;;;55.75;29.98;;;;;;;7.86;100.00;100395.25;5022751;28;20060;-84
2022/03/17 18:37:26;;;;;;;56.65;29.52;;;;;;;7.72;100.00;100385.66;5018329;28;20069;-85
2022/03/17 18:39:53;;;;;;;59.55;32.42;;;;;;;7.76;100.00;100403.31;5012951;28;20493;-85
2022/03/17 18:42:20;;;;;;;62.95;30.90;;;;;;;7.59;100.00;100404.81;5014561;28;20046;-85
2022/03/17 18:44:48;;;;;;;60.85;32.33;;;;;;;7.60;100.00;100411.06;5013106;28;20496;-85
2022/03/17 18:47:15;;;;;;;61.65;32.90;;;;;;;7.46;100.00;100408.75;5010976;28;20050;-86
2022/03/17 18:49:41;;;;;;;63.20;34.80;;;;;;;7.36;100.00;100409.53;5011604;28;20046;-85
2022/03/17 18:52:08;;;;;;;64.20;34.50;;;;;;;7.34;100.00;100418.78;5009938;28;20045;-85
2022/03/17 18:54:35;;;;;;;62.72;33.80;;;;;;;7.36;100.00;100414.97;5011752;28;20058;-85
2022/03/17 18:57:05;;;;;;;72.63;36.95;;;;;;;7.32;100.00;100415.38;5010681;28;20149;-84
2022/03/17 18:59:34;;;;;;;68.78;37.38;;;;;;;7.39;100.00;100417.41;5009605;28;20054;-85